Time;durP1;ratioP1;P1;durP2;ratioP2;P2;SDS_P1;SDS_P2;PMS_P1;PMS_P2;Temp;Humidity;BMP_temperature;BMP_pressure;BME280_temperature;BME280_humidity;BME280_pressure;Samples;Min_cycle;Max_cycle;Signal;HPM_P1;HPM_P2
2023/03/14 00:01:51;;;;;;;19.02;4.22;;;9.20;99.90;;;;;;5090722;28;20043;-82
2023/03/14 00:04:17;;;;;;;22.70;4.32;;;9.60;99.90;;;;;;5091019;28;20485;-82
2023/03/14 00:06:46;;;;;;;19.52;3.88;;;9.30;99.90;;;;;;5107355;28;20086;-81
2023/03/14 00:09:13;;;;;;;19.05;3.35;;;9.40;99.90;;;;;;5091490;28;20054;-81
2023/03/14 00:11:39;;;;;;;17.40;3.58;;;9.50;99.90;;;;;;5091706;28;20055;-82
2023/03/14 00:14:04;;;;;;;15.18;3.70;;;9.60;99.90;;;;;;5108838;28;20121;-82
2023/03/14 00:16:30;;;;;;;17.67;3.35;;;9.70;99.90;;;;;;5108152;28;20042;-81
2023/03/14 00:18:57;;;;;;;20.50;4.00;;;10.10;99.90;;;;;;5107915;28;20047;-82
2023/03/14 00:21:23;;;;;;;17.17;3.45;;;9.70;99.90;;;;;;5108147;28;20509;-82
2023/03/14 00:23:48;;;;;;;16.38;3.95;;;9.80;99.90;;;;;;5108319;28;20056;-82
2023/03/14 00:26:17;;;;;;;14.93;4.13;;;9.80;99.90;;;;;;5090592;28;20054;-82
2023/03/14 00:28:43;;;;;;;18.73;4.82;;;9.80;99.90;;;;;;5108330;27;20080;-82
2023/03/14 00:31:11;;;;;;;15.07;3.47;;;9.80;99.90;;;;;;5092938;28;20449;-82
2023/03/14 00:33:37;;;;;;;11.43;3.72;;;9.80;99.90;;;;;;5108270;28;20482;-82
2023/03/14 00:36:09;;;;;;;17.42;3.97;;;9.80;99.90;;;;;;5108288;28;20055;-81
2023/03/14 00:38:36;;;;;;;15.77;3.85;;;9.90;99.90;;;;;;5108535;28;20492;-82
2023/03/14 00:41:13;;;;;;;13.80;3.42;;;10.30;99.90;;;;;;5109084;27;20164;-82
2023/03/14 00:43:39;;;;;;;13.40;3.92;;;10.60;99.90;;;;;;5094501;27;20047;-81
2023/03/14 00:46:05;;;;;;;18.60;3.83;;;10.70;99.90;;;;;;5113223;27;20039;-82
2023/03/14 00:48:31;;;;;;;15.60;3.97;;;9.90;99.90;;;;;;5113607;27;20090;-82
2023/03/14 00:50:56;;;;;;;16.63;4.03;;;9.90;99.90;;;;;;5112897;27;20516;-81
2023/03/14 00:53:22;;;;;;;15.45;3.53;;;10.00;99.90;;;;;;5094813;27;20039;-82
2023/03/14 00:55:49;;;;;;;16.42;4.20;;;9.90;99.90;;;;;;5088936;28;20040;-81
2023/03/14 00:58:16;;;;;;;14.77;4.13;;;9.90;99.90;;;;;;5092550;28;20059;-81
2023/03/14 01:00:42;;;;;;;15.35;4.95;;;9.90;99.90;;;;;;5091748;28;20051;-81
2023/03/14 01:03:10;;;;;;;13.65;4.45;;;9.90;99.90;;;;;;5103136;27;20505;-82
2023/03/14 01:05:35;;;;;;;14.32;4.40;;;9.90;99.90;;;;;;5111797;27;20995;-82
2023/03/14 01:08:02;;;;;;;15.27;5.30;;;9.90;99.90;;;;;;5111732;27;20130;-82
2023/03/14 01:10:28;;;;;;;13.95;4.03;;;9.90;99.90;;;;;;5111746;27;20166;-82
2023/03/14 01:12:54;;;;;;;16.25;4.90;;;9.90;99.90;;;;;;5111789;27;20355;-81
2023/03/14 01:15:19;;;;;;;13.68;4.80;;;9.90;99.90;;;;;;5112504;27;20043;-82
2023/03/14 01:17:45;;;;;;;11.60;4.15;;;9.90;99.90;;;;;;5129144;27;20095;-81
2023/03/14 01:20:13;;;;;;;16.50;4.85;;;9.80;99.90;;;;;;5128514;27;20062;-81
2023/03/14 01:22:40;;;;;;;13.93;4.22;;;9.80;99.90;;;;;;5111479;27;20154;-81
2023/03/14 01:25:11;;;;;;;9.77;4.22;;;9.80;99.90;;;;;;5128188;27;20095;-81
2023/03/14 01:27:37;;;;;;;15.50;4.18;;;9.80;99.90;;;;;;5111523;27;20438;-81
2023/03/14 01:30:04;;;;;;;12.38;3.92;;;9.80;99.90;;;;;;5110622;27;20039;-81
2023/03/14 01:32:30;;;;;;;12.55;4.05;;;9.90;99.90;;;;;;5129570;27;20158;-81
2023/03/14 01:34:56;;;;;;;14.82;4.22;;;9.90;99.90;;;;;;5110952;27;20138;-81
2023/03/14 01:37:21;;;;;;;11.50;4.00;;;10.00;99.90;;;;;;5128443;27;20126;-81
2023/03/14 01:39:47;;;;;;;15.70;3.72;;;10.00;99.90;;;;;;5112955;27;20047;-81
2023/03/14 01:42:14;;;;;;;11.50;4.00;;;10.00;99.90;;;;;;5128591;27;20104;-82
2023/03/14 01:44:57;;;;;;;13.25;3.78;;;10.00;99.90;;;;;;5110823;27;20108;-82
2023/03/14 01:47:23;;;;;;;16.88;3.92;;;10.10;99.90;;;;;;5110939;27;20460;-81
2023/03/14 01:49:59;;;;;;;15.70;3.83;;;10.00;99.90;;;;;;5098245;27;20403;-81
2023/03/14 01:52:27;;;;;;;12.55;3.17;;;10.00;99.90;;;;;;5111096;27;20047;-81
2023/03/14 01:54:59;;;;;;;13.35;3.80;;;10.00;99.90;;;;;;5094094;27;20043;-81
2023/03/14 01:57:28;;;;;;;;;;;10.00;99.90;;;;;;5111768;27;20043;-81
2023/03/14 02:00:13;;;;;;;14.10;3.72;;;9.90;99.90;;;;;;5111127;27;19934;-81
2023/03/14 02:02:44;;;;;;;12.15;3.40;;;9.90;99.90;;;;;;5128999;27;20031;-81
2023/03/14 02:05:14;;;;;;;17.02;3.35;;;9.90;99.90;;;;;;5114298;27;20047;-81
2023/03/14 02:07:49;;;;;;;11.68;3.15;;;9.90;99.90;;;;;;5092701;27;20035;-82
2023/03/14 02:10:18;;;;;;;12.57;3.22;;;9.90;99.90;;;;;;5111463;27;20027;-82
2023/03/14 02:12:45;;;;;;;13.85;3.13;;;9.90;99.90;;;;;;5109933;27;20059;-82
2023/03/14 02:15:11;;;;;;;15.77;3.40;;;9.90;99.90;;;;;;5111251;27;20406;-81
2023/03/14 02:17:40;;;;;;;12.75;4.18;;;9.90;99.90;;;;;;5107802;27;20047;-81
2023/03/14 02:20:05;;;;;;;11.48;3.53;;;9.80;99.90;;;;;;5110744;27;20562;-82
2023/03/14 02:22:31;;;;;;;20.50;5.63;;;9.80;99.90;;;;;;5108442;27;20047;-81
2023/03/14 02:25:14;;;;;;;14.68;3.88;;;9.80;99.90;;;;;;5113050;27;20376;-82
2023/03/14 02:27:39;;;;;;;12.63;4.05;;;9.80;99.90;;;;;;5109419;27;20088;-81
2023/03/14 02:30:10;;;;;;;14.15;3.70;;;9.80;99.90;;;;;;5093172;27;20039;-81
2023/03/14 02:32:39;;;;;;;13.93;4.10;;;9.80;99.90;;;;;;5128682;27;20075;-81
2023/03/14 02:35:09;;;;;;;11.15;4.30;;;9.90;99.90;;;;;;5110196;27;20065;-81
2023/03/14 02:37:47;;;;;;;12.90;4.13;;;9.80;99.90;;;;;;5104593;27;20485;-81
2023/03/14 02:40:13;;;;;;;12.98;3.90;;;9.80;99.90;;;;;;5111086;27;20414;-82
2023/03/14 02:42:39;;;;;;;11.52;4.15;;;9.80;99.90;;;;;;5109911;27;20130;-81
2023/03/14 02:45:07;;;;;;;13.20;4.38;;;9.80;99.90;;;;;;5129711;27;20373;-81
2023/03/14 02:47:33;;;;;;;14.98;4.18;;;9.80;99.90;;;;;;5129566;27;20093;-81
2023/03/14 02:50:10;;;;;;;10.85;5.15;;;9.70;99.90;;;;;;5128819;27;20503;-81
2023/03/14 02:52:35;;;;;;;12.40;3.90;;;9.70;99.90;;;;;;5110148;27;20505;-81
2023/03/14 02:55:01;;;;;;;11.80;4.10;;;9.60;99.90;;;;;;5093700;27;20130;-80
2023/03/14 02:57:27;;;;;;;10.38;3.42;;;9.60;99.90;;;;;;5110882;27;20123;-81
2023/03/14 02:59:52;;;;;;;8.32;3.40;;;9.40;99.90;;;;;;5109979;27;20051;-81
2023/03/14 03:02:18;;;;;;;8.50;3.90;;;9.50;99.90;;;;;;5110159;27;20191;-81
2023/03/14 03:04:43;;;;;;;8.25;3.50;;;10.40;99.90;;;;;;5109153;27;20054;-81
2023/03/14 03:07:09;;;;;;;7.07;3.00;;;9.50;99.90;;;;;;5110315;27;20043;-82
2023/03/14 03:09:35;;;;;;;8.45;3.00;;;9.50;99.90;;;;;;5109569;27;20039;-81
2023/03/14 03:12:00;;;;;;;8.45;3.17;;;9.50;99.90;;;;;;5108461;27;20035;-81
2023/03/14 03:14:26;;;;;;;7.72;3.05;;;9.50;99.90;;;;;;5092766;27;20035;-81
2023/03/14 03:16:51;;;;;;;8.68;3.10;;;9.50;99.90;;;;;;5128070;27;20039;-81
2023/03/14 03:19:17;;;;;;;7.75;2.60;;;9.40;99.90;;;;;;5109325;27;20050;-81
2023/03/14 03:21:43;;;;;;;10.68;4.53;;;9.40;99.90;;;;;;5109465;27;20458;-81
2023/03/14 03:24:09;;;;;;;6.00;2.90;;;9.40;99.90;;;;;;5128846;27;20054;-81
2023/03/14 03:26:35;;;;;;;12.43;3.20;;;9.70;99.90;;;;;;5127521;27;20035;-81
2023/03/14 03:29:01;;;;;;;7.53;3.03;;;9.30;99.90;;;;;;5115982;27;20051;-81
2023/03/14 03:31:27;;;;;;;5.65;2.97;;;9.30;99.90;;;;;;5107496;28;20430;-81
2023/03/14 03:33:53;;;;;;;8.05;3.20;;;9.20;99.90;;;;;;5123764;27;20035;-81
2023/03/14 03:36:25;;;;;;;9.65;3.58;;;9.20;99.90;;;;;;5107631;28;20062;-81
2023/03/14 03:38:50;;;;;;;12.70;3.75;;;9.20;99.90;;;;;;5127498;27;20054;-81
2023/03/14 03:41:16;;;;;;;8.52;3.30;;;9.20;99.90;;;;;;5108492;28;20036;-81
2023/03/14 03:43:43;;;;;;;8.05;3.80;;;9.20;99.90;;;;;;5093626;28;20039;-80
2023/03/14 03:46:09;;;;;;;8.10;3.85;;;9.60;99.90;;;;;;5127810;28;20065;-81
2023/03/14 03:48:35;;;;;;;6.38;3.63;;;9.20;99.90;;;;;;5128009;28;20623;-81
2023/03/14 03:51:01;;;;;;;10.10;3.88;;;9.90;99.90;;;;;;5110545;28;20051;-82
2023/03/14 03:53:27;;;;;;;8.85;3.88;;;9.20;99.90;;;;;;5108547;28;20052;-81
2023/03/14 03:55:53;;;;;;;14.20;3.85;;;9.20;99.90;;;;;;5108653;28;20074;-81
2023/03/14 03:58:19;;;;;;;7.93;3.65;;;9.20;99.90;;;;;;5109814;28;20050;-81
2023/03/14 04:00:44;;;;;;;10.48;3.65;;;9.20;99.90;;;;;;5109602;28;20079;-81
2023/03/14 04:03:10;;;;;;;11.20;4.43;;;9.20;99.90;;;;;;5127247;28;20046;-81
2023/03/14 04:05:36;;;;;;;8.73;3.10;;;9.10;99.90;;;;;;5089615;28;20079;-81
2023/03/14 04:08:02;;;;;;;10.23;3.38;;;9.10;99.90;;;;;;5107637;28;20040;-81
2023/03/14 04:10:28;;;;;;;10.65;3.65;;;9.80;99.90;;;;;;5108238;28;20043;-81
2023/03/14 04:12:54;;;;;;;12.25;3.78;;;9.10;99.90;;;;;;5107909;28;20043;-81
2023/03/14 04:15:19;;;;;;;9.93;3.20;;;9.10;99.90;;;;;;5089866;28;20039;-81
2023/03/14 04:17:45;;;;;;;9.05;2.92;;;9.80;99.90;;;;;;5111389;27;20047;-82
2023/03/14 04:20:11;;;;;;;11.30;3.33;;;9.10;99.90;;;;;;5111335;27;20049;-81
2023/03/14 04:22:38;;;;;;;11.18;3.30;;;9.10;99.90;;;;;;5113631;27;20055;-81
2023/03/14 04:25:04;;;;;;;8.35;3.15;;;9.10;99.90;;;;;;5112633;27;20099;-81
2023/03/14 04:27:30;;;;;;;8.52;2.72;;;9.10;99.90;;;;;;5130899;27;20050;-81
2023/03/14 04:29:55;;;;;;;8.05;3.22;;;9.10;99.90;;;;;;5130928;27;20039;-81
2023/03/14 04:32:21;;;;;;;7.80;3.20;;;9.10;99.90;;;;;;5112740;27;20051;-81
2023/03/14 04:34:46;;;;;;;8.52;3.47;;;9.10;99.90;;;;;;5112769;27;20501;-81
2023/03/14 04:37:12;;;;;;;8.95;3.13;;;9.10;99.90;;;;;;5113166;27;20476;-81
2023/03/14 04:39:38;;;;;;;6.55;3.15;;;9.00;99.90;;;;;;5112247;27;20100;-81
2023/03/14 04:42:04;;;;;;;9.40;3.63;;;9.00;99.90;;;;;;5131171;27;20524;-81
2023/03/14 04:44:29;;;;;;;9.70;3.70;;;8.90;99.90;;;;;;5112973;27;20047;-81
2023/03/14 04:46:55;;;;;;;8.30;3.53;;;8.90;99.90;;;;;;5096630;27;20104;-82
2023/03/14 04:49:21;;;;;;;7.63;3.05;;;8.30;99.90;;;;;;5112253;27;20087;-82
2023/03/14 04:51:46;;;;;;;7.68;3.70;;;8.90;99.90;;;;;;5131654;27;20098;-81
2023/03/14 04:54:12;;;;;;;9.48;4.13;;;8.90;99.90;;;;;;5111096;27;20042;-81
2023/03/14 04:56:37;;;;;;;7.38;3.90;;;8.80;99.90;;;;;;5113002;27;20082;-81
2023/03/14 04:59:04;;;;;;;11.43;3.95;;;8.80;99.90;;;;;;5130695;27;20035;-81
2023/03/14 05:01:29;;;;;;;8.02;3.92;;;8.70;99.90;;;;;;5113866;27;20450;-81
2023/03/14 05:03:55;;;;;;;9.70;3.90;;;8.70;99.90;;;;;;5131800;27;20043;-81
2023/03/14 05:06:20;;;;;;;11.05;3.97;;;8.70;99.90;;;;;;5112785;27;20103;-82
2023/03/14 05:08:46;;;;;;;11.18;4.25;;;8.70;99.90;;;;;;5095149;27;20445;-81
2023/03/14 05:11:12;;;;;;;9.35;3.92;;;8.80;99.90;;;;;;5113307;27;20042;-82
2023/03/14 05:13:38;;;;;;;6.53;3.35;;;8.80;99.90;;;;;;5113271;27;20051;-81
2023/03/14 05:16:09;;;;;;;11.20;4.00;;;8.80;99.90;;;;;;5112068;27;20039;-81
2023/03/14 05:18:35;;;;;;;8.35;4.43;;;8.80;99.90;;;;;;5112577;27;20047;-81
2023/03/14 05:21:00;;;;;;;8.60;4.32;;;8.80;99.90;;;;;;5130829;27;20062;-81
2023/03/14 05:23:26;;;;;;;10.02;3.85;;;8.90;99.90;;;;;;5100966;28;20052;-81
2023/03/14 05:25:52;;;;;;;9.75;4.22;;;8.90;99.90;;;;;;5111824;27;20162;-81
2023/03/14 05:28:17;;;;;;;10.10;3.63;;;8.90;99.90;;;;;;5112561;27;20046;-81
2023/03/14 05:30:43;;;;;;;9.27;3.92;;;9.30;99.90;;;;;;5128375;27;20092;-82
2023/03/14 05:33:08;;;;;;;9.45;4.03;;;9.00;99.90;;;;;;5112328;27;20448;-82
2023/03/14 05:35:41;;;;;;;8.75;4.40;;;9.00;99.90;;;;;;5109679;27;20055;-82
2023/03/14 05:38:09;;;;;;;;;;;9.00;99.90;;;;;;5112039;27;20506;-82
2023/03/14 05:40:37;;;;;;;10.25;4.13;;;9.40;99.90;;;;;;5094242;27;20010;-82
2023/03/14 05:43:03;;;;;;;8.27;4.22;;;9.60;99.90;;;;;;5111387;27;20075;-82
2023/03/14 05:45:28;;;;;;;7.97;4.28;;;8.90;99.90;;;;;;5093462;27;20082;-83
2023/03/14 05:48:03;;;;;;;11.35;4.13;;;8.80;99.90;;;;;;5112329;27;20152;-83
2023/03/14 05:51:03;;;;;;;7.60;3.67;;;8.80;99.90;;;;;;5130108;27;20088;-83
2023/03/14 05:53:30;;;;;;;11.73;3.45;;;8.80;99.90;;;;;;5125772;27;20050;-83
2023/03/14 05:55:56;;;;;;;9.20;3.70;;;8.80;99.90;;;;;;5114282;27;20044;-83
2023/03/14 05:58:27;;;;;;;10.00;3.70;;;8.70;99.90;;;;;;5110144;27;20044;-83
2023/03/14 06:00:53;;;;;;;11.38;3.80;;;8.70;99.90;;;;;;5112782;27;20049;-83
2023/03/14 06:03:54;;;;;;;6.68;3.38;;;8.70;99.90;;;;;;5098365;28;20035;-83
2023/03/14 06:06:22;;;;;;;12.88;4.55;;;8.70;99.90;;;;;;5029764;28;20649;-84
2023/03/14 06:09:14;;;;;;;8.70;3.97;;;9.30;99.90;;;;;;5104425;27;20058;-85
2023/03/14 06:11:39;;;;;;;8.95;4.03;;;7.70;99.90;;;;;;5105858;27;20055;-82
2023/03/14 06:14:08;;;;;;;9.32;3.55;;;8.60;99.90;;;;;;5110972;27;20042;-83
2023/03/14 06:16:34;;;;;;;8.13;3.90;;;8.60;99.90;;;;;;5101663;28;20048;-82
2023/03/14 06:18:59;;;;;;;9.82;3.88;;;8.60;99.90;;;;;;5102993;27;20046;-83
2023/03/14 06:21:25;;;;;;;8.23;3.90;;;8.60;99.90;;;;;;5127572;27;20381;-83
2023/03/14 06:23:51;;;;;;;8.45;4.10;;;8.60;99.90;;;;;;5110577;27;20035;-82
2023/03/14 06:26:16;;;;;;;8.75;4.35;;;8.60;99.90;;;;;;5130791;27;20338;-82
2023/03/14 06:28:42;;;;;;;9.43;4.40;;;8.90;99.90;;;;;;5093858;27;20116;-83
2023/03/14 06:31:07;;;;;;;8.23;3.88;;;8.60;99.90;;;;;;5115043;27;20435;-83
2023/03/14 06:33:33;;;;;;;7.90;3.33;;;8.60;99.90;;;;;;5097262;27;20055;-83
2023/03/14 06:35:58;;;;;;;7.15;3.10;;;8.70;99.90;;;;;;5108292;27;20047;-83
2023/03/14 06:38:24;;;;;;;7.93;3.42;;;8.70;99.90;;;;;;5108228;27;20055;-83
2023/03/14 06:40:50;;;;;;;8.45;3.30;;;9.50;99.90;;;;;;5110786;27;20480;-84
2023/03/14 06:43:15;;;;;;;7.15;3.35;;;8.70;99.90;;;;;;5128894;27;20073;-83
2023/03/14 06:45:41;;;;;;;7.03;3.28;;;7.90;99.90;;;;;;5128925;27;20138;-83
2023/03/14 06:48:07;;;;;;;8.52;3.03;;;8.80;99.90;;;;;;5111239;27;20501;-83
2023/03/14 06:50:33;;;;;;;8.02;3.33;;;8.80;99.90;;;;;;5110403;27;20366;-83
2023/03/14 06:52:59;;;;;;;10.32;2.67;;;8.80;99.90;;;;;;5094101;27;20058;-83
2023/03/14 06:55:25;;;;;;;6.78;2.90;;;8.80;99.90;;;;;;5110207;27;20039;-83
2023/03/14 06:57:51;;;;;;;4.88;2.67;;;8.80;99.90;;;;;;5129469;27;20031;-83
2023/03/14 07:00:17;;;;;;;5.10;3.08;;;9.50;99.90;;;;;;5093452;27;20047;-83
2023/03/14 07:02:43;;;;;;;7.57;3.30;;;8.80;99.90;;;;;;5110477;27;20477;-83
2023/03/14 07:05:10;;;;;;;7.00;3.47;;;8.80;99.90;;;;;;5111226;27;20095;-83
2023/03/14 07:07:36;;;;;;;4.72;2.55;;;8.80;99.90;;;;;;5085965;27;20062;-84
2023/03/14 07:10:01;;;;;;;6.07;2.55;;;8.80;99.90;;;;;;5122826;27;20043;-84
2023/03/14 07:12:27;;;;;;;6.47;3.00;;;8.80;99.90;;;;;;5111362;27;20129;-84
2023/03/14 07:14:52;;;;;;;6.88;2.72;;;9.40;99.90;;;;;;5127453;27;20051;-85
2023/03/14 07:17:18;;;;;;;7.32;2.67;;;8.80;99.90;;;;;;5110005;27;20580;-85
2023/03/14 07:19:44;;;;;;;6.35;1.90;;;8.80;99.90;;;;;;5108215;27;20047;-83
2023/03/14 07:22:09;;;;;;;5.25;1.52;;;8.70;99.90;;;;;;5092227;27;20035;-84
2023/03/14 07:24:35;;;;;;;4.00;1.65;;;8.70;99.90;;;;;;5107916;28;20803;-84
2023/03/14 07:27:00;;;;;;;4.50;1.33;;;8.60;99.90;;;;;;5106184;28;20131;-85
2023/03/14 07:29:26;;;;;;;5.15;1.60;;;8.60;99.90;;;;;;5104564;28;20047;-86
2023/03/14 07:31:52;;;;;;;5.00;1.60;;;8.60;99.90;;;;;;5115783;27;20122;-85
2023/03/14 07:34:19;;;;;;;3.70;0.70;;;8.40;99.90;;;;;;5087896;28;20056;-84
2023/03/14 07:36:44;;;;;;;1.95;0.80;;;8.00;99.90;;;;;;5107028;27;20646;-86
2023/03/14 07:39:10;;;;;;;3.22;1.10;;;7.70;99.90;;;;;;5109100;28;20047;-86
2023/03/14 07:41:36;;;;;;;1.88;0.80;;;7.40;99.90;;;;;;5109803;28;20043;-88
2023/03/14 07:44:01;;;;;;;2.97;0.70;;;7.10;99.90;;;;;;5093087;28;20477;-88
2023/03/14 07:46:27;;;;;;;3.28;0.85;;;7.40;99.90;;;;;;5110676;28;20053;-87
2023/03/14 07:48:53;;;;;;;4.95;0.90;;;6.20;99.90;;;;;;5094084;28;20382;-88
2023/03/14 07:51:19;;;;;;;1.98;0.75;;;6.10;99.90;;;;;;5109977;27;20438;-86
2023/03/14 07:53:45;;;;;;;3.97;0.80;;;6.30;99.90;;;;;;5113600;27;20161;-85
2023/03/14 07:56:11;;;;;;;4.18;0.60;;;6.10;99.90;;;;;;5113757;27;20143;-85
2023/03/14 07:58:38;;;;;;;5.10;0.52;;;5.90;99.90;;;;;;5113157;27;20130;-85
2023/03/14 08:01:03;;;;;;;5.07;0.85;;;5.70;99.90;;;;;;5114115;27;20405;-86
2023/03/14 08:03:29;;;;;;;4.70;0.80;;;5.60;99.90;;;;;;5096062;27;20046;-85
2023/03/14 08:05:55;;;;;;;2.92;0.85;;;5.70;99.90;;;;;;5113917;27;20039;-85
2023/03/14 08:08:20;;;;;;;3.17;0.88;;;5.40;99.90;;;;;;5113125;27;20046;-86
2023/03/14 08:10:46;;;;;;;1.75;0.77;;;5.20;99.90;;;;;;5083923;28;20044;-87
2023/03/14 08:13:12;;;;;;;1.20;0.80;;;5.20;99.90;;;;;;5077347;28;20131;-89
2023/03/14 08:15:38;;;;;;;2.58;0.50;;;5.00;99.90;;;;;;5095243;28;20039;-87
2023/03/14 08:18:05;;;;;;;1.52;0.50;;;5.50;99.90;;;;;;5077249;28;20051;-87
2023/03/14 08:20:31;;;;;;;2.25;0.60;;;4.90;99.90;;;;;;5096070;28;20066;-89
2023/03/14 08:23:00;;;;;;;0.70;0.50;;;5.70;99.90;;;;;;5078715;28;20050;-87
2023/03/14 08:25:28;;;;;;;3.08;0.85;;;4.90;99.90;;;;;;5090660;27;20342;-88
2023/03/14 08:27:54;;;;;;;2.50;0.60;;;5.00;99.90;;;;;;5114704;27;20047;-85
2023/03/14 08:30:21;;;;;;;2.33;0.50;;;5.00;99.90;;;;;;5101931;27;20042;-91
2023/03/14 08:32:47;;;;;;;1.42;0.82;;;5.00;99.90;;;;;;5112294;27;20043;-92
2023/03/14 08:35:13;;;;;;;1.67;0.70;;;5.00;99.90;;;;;;5103675;27;20116;-91
2023/03/14 08:37:39;;;;;;;2.78;0.82;;;6.00;99.90;;;;;;5104258;27;20046;-91
2023/03/14 08:40:10;;;;;;;1.77;0.80;;;5.10;99.90;;;;;;5104860;27;20132;-91
2023/03/14 08:42:39;;;;;;;0.70;0.70;;;5.60;99.90;;;;;;5107049;27;20346;-91
2023/03/14 08:45:07;;;;;;;3.00;1.00;;;5.10;99.90;;;;;;5104156;27;20050;-92
2023/03/14 08:47:34;;;;;;;1.30;1.15;;;5.10;99.90;;;;;;5109205;27;20043;-92
2023/03/14 08:50:01;;;;;;;4.05;0.77;;;5.20;99.90;;;;;;5105101;27;20047;-92
2023/03/14 08:52:27;;;;;;;3.08;0.90;;;5.20;99.90;;;;;;5104079;27;20630;-91
2023/03/14 08:54:56;;;;;;;4.43;0.82;;;5.20;99.90;;;;;;5104713;27;20066;-92
2023/03/14 08:57:21;;;;;;;2.08;0.88;;;6.00;99.90;;;;;;5105566;27;20054;-91
2023/03/14 08:59:50;;;;;;;1.95;0.80;;;6.00;99.90;;;;;;5098677;27;20043;-90
2023/03/14 09:02:16;;;;;;;4.90;1.00;;;5.70;99.90;;;;;;5095828;27;20103;-90
2023/03/14 09:04:42;;;;;;;3.25;1.08;;;5.40;99.90;;;;;;5094697;27;20040;-91
2023/03/14 09:07:07;;;;;;;1.35;1.17;;;5.40;99.90;;;;;;5097657;27;20458;-91
2023/03/14 09:09:36;;;;;;;3.97;0.77;;;5.50;99.90;;;;;;5101004;27;20114;-91
2023/03/14 09:12:02;;;;;;;3.75;1.08;;;5.50;99.90;;;;;;5097912;27;20477;-90
2023/03/14 09:14:28;;;;;;;3.47;0.73;;;5.60;99.90;;;;;;5099299;27;20080;-89
2023/03/14 09:16:54;;;;;;;2.38;0.80;;;5.60;99.90;;;;;;5097858;27;20138;-91
2023/03/14 09:19:20;;;;;;;4.40;1.15;;;5.60;99.90;;;;;;5097283;27;20124;-90
2023/03/14 09:21:46;;;;;;;2.92;0.82;;;6.00;99.90;;;;;;5097399;27;20046;-89
2023/03/14 09:24:11;;;;;;;4.70;1.60;;;5.70;99.90;;;;;;5098838;27;20039;-91
2023/03/14 09:26:38;;;;;;;5.78;1.35;;;6.30;99.90;;;;;;5103566;27;20111;-90
2023/03/14 09:29:03;;;;;;;9.13;1.40;;;5.60;99.90;;;;;;5103405;27;20075;-91
2023/03/14 09:31:29;;;;;;;3.70;1.05;;;6.00;99.90;;;;;;5102365;27;20039;-92
2023/03/14 09:33:55;;;;;;;9.68;1.67;;;6.20;99.90;;;;;;5098122;27;20035;-92
2023/03/14 09:36:21;;;;;;;5.40;1.40;;;6.60;99.90;;;;;;5093593;27;20055;-91
2023/03/14 09:38:49;;;;;;;5.82;1.50;;;6.40;99.90;;;;;;5094918;27;20051;-92
2023/03/14 09:41:21;;;;;;;9.88;1.55;;;6.60;99.90;;;;;;5096538;27;20031;-92
2023/03/14 09:43:50;;;;;;;10.75;1.90;;;7.40;99.90;;;;;;5086519;28;20505;-90
2023/03/14 09:46:17;;;;;;;10.18;1.63;;;7.40;99.90;;;;;;5076084;28;20047;-89
2023/03/14 09:48:43;;;;;;;11.45;2.13;;;7.40;99.90;;;;;;5076745;28;20402;-92
2023/03/14 09:51:16;;;;;;;10.60;2.08;;;7.50;99.90;;;;;;5075755;28;20072;-91
2023/03/14 09:53:47;;;;;;;11.93;2.15;;;7.40;99.90;;;;;;5075495;28;20048;-92
2023/03/14 09:56:31;;;;;;;11.40;2.50;;;6.80;99.90;;;;;;5077221;28;20066;-92
2023/03/14 09:59:00;;;;;;;13.32;1.80;;;6.90;99.90;;;;;;5076604;28;20418;-90
2023/03/14 10:01:28;;;;;;;16.67;2.47;;;7.00;99.90;;;;;;5076547;28;20082;-90
2023/03/14 10:04:00;;;;;;;12.60;2.28;;;7.10;99.90;;;;;;5076183;28;20047;-90
2023/03/14 10:06:29;;;;;;;8.68;1.90;;;7.00;99.90;;;;;;5075847;28;20047;-88
2023/03/14 10:08:56;;;;;;;9.80;1.88;;;7.00;99.90;;;;;;5077153;28;20047;-88
2023/03/14 10:11:22;;;;;;;7.88;1.85;;;6.80;99.90;;;;;;5075117;28;20043;-90
2023/03/14 10:14:03;;;;;;;19.65;2.65;;;7.40;99.90;;;;;;5075890;28;20062;-91
2023/03/14 10:16:30;;;;;;;69.32;36.85;;;7.60;99.90;;;;;;5075860;28;20048;-90
2023/03/14 10:19:03;;;;;;;11.88;4.07;;;7.40;99.90;;;;;;5076226;28;20074;-89
2023/03/14 10:21:38;;;;;;;12.10;3.67;;;6.50;99.90;;;;;;5076247;28;20134;-92
2023/03/14 10:24:30;;;;;;;8.98;3.53;;;6.70;99.90;;;;;;5075736;28;20050;-91
2023/03/14 10:27:29;;;;;;;20.50;6.22;;;6.60;99.90;;;;;;5076611;28;20152;-91
2023/03/14 10:29:57;;;;;;;18.95;8.50;;;6.60;99.90;;;;;;5071818;28;20130;-90
2023/03/14 10:32:33;;;;;;;10.82;1.80;;;6.90;99.90;;;;;;5075302;28;20050;-90
2023/03/14 10:35:13;;;;;;;14.27;1.90;;;7.20;99.90;;;;;;5077616;27;20078;-88
2023/03/14 10:38:12;;;;;;;15.77;6.10;;;7.50;99.90;;;;;;5096371;27;20153;-92
2023/03/14 10:40:43;;;;;;;12.25;4.10;;;7.00;99.90;;;;;;5084214;27;20061;-89
2023/03/14 10:43:21;;;;;;;10.93;2.58;;;6.80;99.90;;;;;;5092501;27;20038;-89
2023/03/14 10:45:59;;;;;;;11.60;5.35;;;6.40;99.90;;;;;;5075050;28;20051;-89
2023/03/14 10:48:32;;;;;;;17.08;4.28;;;6.40;99.90;;;;;;5075051;28;20048;-89
2023/03/14 10:51:06;;;;;;;14.48;6.15;;;7.20;99.90;;;;;;5111089;28;20048;-90
2023/03/14 10:53:45;;;;;;;19.73;7.25;;;6.50;99.90;;;;;;5076563;28;20052;-88
2023/03/14 10:56:17;;;;;;;12.18;3.28;;;6.60;99.90;;;;;;5079381;27;20039;-89
2023/03/14 10:58:48;;;;;;;21.95;5.30;;;6.60;99.90;;;;;;5094321;27;20442;-90
2023/03/14 11:01:24;;;;;;;12.85;4.25;;;6.70;99.90;;;;;;5095517;27;20082;-86
2023/03/14 11:04:13;;;;;;;9.05;2.00;;;6.90;99.90;;;;;;5095082;27;20377;-87
2023/03/14 11:07:09;;;;;;;8.48;2.60;;;7.00;99.90;;;;;;5089661;27;20035;-86
2023/03/14 11:09:54;;;;;;;7.38;1.38;;;7.00;99.90;;;;;;5100229;27;20095;-88
2023/03/14 11:13:02;;;;;;;13.18;2.00;;;7.10;99.90;;;;;;5089750;27;20071;-87
2023/03/14 11:15:58;;;;;;;11.15;2.67;;;7.20;99.90;;;;;;5094630;27;20043;-88
2023/03/14 11:18:53;;;;;;;12.48;2.22;;;7.40;99.90;;;;;;5092661;27;20043;-86
2023/03/14 11:21:58;;;;;;;5.80;1.55;;;7.30;99.90;;;;;;5091218;27;20390;-87
2023/03/14 11:24:39;;;;;;;6.22;1.17;;;7.30;99.90;;;;;;5088101;27;20123;-87
2023/03/14 11:27:18;;;;;;;4.65;2.13;;;7.30;99.90;;;;;;5110257;27;20054;-88
2023/03/14 11:30:03;;;;;;;9.52;1.60;;;7.40;99.90;;;;;;5093495;28;20053;-87
2023/03/14 11:32:36;;;;;;;12.93;2.15;;;7.20;99.90;;;;;;5093302;28;20047;-89
2023/03/14 11:35:39;;;;;;;6.57;1.80;;;7.00;99.90;;;;;;5110535;28;20055;-85
2023/03/14 11:38:16;;;;;;;8.05;1.60;;;7.10;99.90;;;;;;5090153;27;20047;-85
2023/03/14 11:40:43;;;;;;;7.65;1.60;;;7.10;99.90;;;;;;5092797;28;20043;-87
2023/03/14 11:43:08;;;;;;;7.97;1.40;;;7.10;99.90;;;;;;5091823;28;20090;-86
2023/03/14 11:45:41;;;;;;;4.75;1.20;;;7.20;99.90;;;;;;5092274;27;20112;-85
2023/03/14 11:48:37;;;;;;;6.70;1.80;;;7.20;99.90;;;;;;5078695;28;20047;-87
2023/03/14 11:51:11;;;;;;;13.88;1.52;;;7.40;99.90;;;;;;5109738;28;20119;-87
2023/03/14 11:53:53;;;;;;;7.00;1.60;;;7.60;99.90;;;;;;5092449;28;20043;-88
2023/03/14 11:56:43;;;;;;;7.22;1.83;;;7.70;99.90;;;;;;5082181;28;20143;-86
2023/03/14 11:59:21;;;;;;;7.38;1.75;;;7.70;99.90;;;;;;5108128;28;20051;-85
2023/03/14 12:02:19;;;;;;;8.68;1.83;;;7.50;99.90;;;;;;5109473;28;20493;-86
2023/03/14 12:05:19;;;;;;;6.13;1.13;;;7.40;99.90;;;;;;5063552;28;20081;-86
2023/03/14 12:08:00;;;;;;;6.78;1.15;;;7.40;99.90;;;;;;5072203;28;20218;-86
2023/03/14 12:10:29;;;;;;;4.28;1.33;;;7.50;99.90;;;;;;5088460;28;20054;-86
2023/03/14 12:12:55;;;;;;;3.33;0.82;;;7.50;99.90;;;;;;5088257;28;20046;-87
2023/03/14 12:15:23;;;;;;;6.10;1.38;;;7.50;99.90;;;;;;5089140;28;20425;-87
2023/03/14 12:17:55;;;;;;;6.65;1.10;;;7.40;99.90;;;;;;5088584;28;20036;-87
2023/03/14 12:20:23;;;;;;;5.15;1.55;;;7.50;99.90;;;;;;5092648;28;20035;-87
2023/03/14 12:22:50;;;;;;;9.02;1.55;;;7.60;99.90;;;;;;5090972;27;20043;-87
2023/03/14 12:25:20;;;;;;;8.70;1.33;;;7.70;99.90;;;;;;5080401;28;20046;-83
2023/03/14 12:27:55;;;;;;;5.32;1.73;;;7.80;99.90;;;;;;5126362;28;20491;-84
2023/03/14 12:30:39;;;;;;;3.78;1.25;;;7.70;99.90;;;;;;5089382;28;20050;-84
2023/03/14 12:33:17;;;;;;;21.20;10.80;;;7.50;99.90;;;;;;5109242;28;20122;-85
2023/03/14 12:36:03;;;;;;;3.03;1.10;;;7.40;99.90;;;;;;5108830;28;20059;-84
2023/03/14 12:38:35;;;;;;;2.90;1.65;;;7.90;93.10;;;;;;5109384;27;20047;-83
2023/03/14 12:41:24;;;;;;;4.25;0.82;;;7.40;96.90;;;;;;5113273;27;20134;-85
2023/03/14 12:43:50;;;;;;;4.90;2.25;;;7.50;71.80;;;;;;5112346;27;20577;-85
2023/03/14 12:46:21;;;;;;;3.70;1.33;;;7.70;99.90;;;;;;5110596;27;20071;-86
2023/03/14 12:48:49;;;;;;;2.50;1.00;;;7.80;96.10;;;;;;5082688;28;20113;-85
2023/03/14 12:51:18;;;;;;;7.40;1.73;;;7.70;99.90;;;;;;5109915;28;20054;-84
2023/03/14 12:53:55;;;;;;;3.80;1.30;;;8.30;99.90;;;;;;5108261;28;20047;-85
2023/03/14 12:56:26;;;;;;;5.30;0.95;;;7.70;93.60;;;;;;5108335;28;20062;-86
2023/03/14 12:59:17;;;;;;;5.75;1.52;;;7.60;99.90;;;;;;5075647;28;20879;-86
2023/03/14 13:02:05;;;;;;;3.80;1.08;;;7.80;91.40;;;;;;5098015;27;20051;-86
2023/03/14 13:04:47;;;;;;;4.38;0.98;;;7.20;91.50;;;;;;5091142;28;20059;-85
2023/03/14 13:07:29;;;;;;;3.22;1.10;;;8.20;74.10;;;;;;5091802;28;20521;-83